createdAt,value
2023-01-15T00:00:52.435Z,99618.50
2023-01-15T00:03:33.646Z,99623.44
2023-01-15T00:15:15.214Z,99626.41
2023-01-15T00:17:53.198Z,99624.88
2023-01-15T00:20:25.981Z,99632.19
2023-01-15T00:27:03.088Z,99644.16
2023-01-15T00:30:19.698Z,99636.13
2023-01-15T00:36:37.918Z,99646.22
2023-01-15T00:39:11.079Z,99657.13
2023-01-15T00:41:41.122Z,99653.72
2023-01-15T00:44:09.386Z,99619.41
2023-01-15T00:46:37.910Z,99623.00
2023-01-15T00:49:06.385Z,99626.75
2023-01-15T00:51:35.946Z,99620.28
2023-01-15T00:54:04.812Z,99623.28
2023-01-15T00:56:34.792Z,99610.53
2023-01-15T00:59:03.253Z,99596.22
2023-01-15T01:01:31.891Z,99584.59
2023-01-15T01:04:00.061Z,99590.03
2023-01-15T01:06:28.478Z,99593.78
2023-01-15T01:08:57.898Z,99605.53
2023-01-15T01:11:28.426Z,99602.81
2023-01-15T01:13:56.635Z,99602.97
2023-01-15T01:16:27.546Z,99586.59
2023-01-15T01:18:55.856Z,99603.81
2023-01-15T01:21:23.947Z,99593.91
2023-01-15T01:23:52.070Z,99625.78
2023-01-15T01:26:21.359Z,99636.53
2023-01-15T01:28:53.988Z,99621.19
2023-01-15T01:31:23.116Z,99626.78
2023-01-15T01:33:51.589Z,99630.50
2023-01-15T01:36:20.178Z,99626.09
2023-01-15T01:38:50.127Z,99633.25
2023-01-15T01:41:18.702Z,99627.09
2023-01-15T01:43:57.737Z,99621.47
2023-01-15T01:46:26.155Z,99630.97
2023-01-15T01:48:56.982Z,99625.38
2023-01-15T01:51:28.899Z,99630.81
2023-01-15T01:53:58.065Z,99647.31
2023-01-15T01:56:26.626Z,99649.19
2023-01-15T01:58:59.410Z,99626.53
2023-01-15T02:01:37.852Z,99622.22
2023-01-15T02:04:12.430Z,99644.03
2023-01-15T02:06:45.188Z,99658.53
2023-01-15T02:09:34.383Z,99652.38
2023-01-15T02:12:14.742Z,99647.75
2023-01-15T02:15:00.553Z,99640.63
2023-01-15T02:17:38.703Z,99644.34
2023-01-15T02:20:33.464Z,99640.03
2023-01-15T02:23:30.233Z,99640.91
2023-01-15T02:26:52.303Z,99619.25
2023-01-15T02:29:29.668Z,99601.31
2023-01-15T02:32:00.866Z,99601.31
2023-01-15T02:34:34.528Z,99612.06
2023-01-15T02:37:13.829Z,99604.91
2023-01-15T02:39:46.742Z,99612.22
2023-01-15T02:42:18.875Z,99618.53
2023-01-15T02:44:52.477Z,99615.13
2023-01-15T02:47:25.633Z,99616.84
2023-01-15T02:49:58.565Z,99615.13
2023-01-15T02:52:31.000Z,99607.81
2023-01-15T02:55:04.000Z,99598.03
2023-01-15T02:57:38.689Z,99597.19
2023-01-15T03:00:10.721Z,99607.94
2023-01-15T03:02:44.382Z,99611.66
2023-01-15T03:05:18.869Z,99604.34
2023-01-15T03:07:52.619Z,99602.63
2023-01-15T03:10:23.809Z,99599.16
2023-01-15T03:13:04.968Z,99602.50
2023-01-15T03:16:09.977Z,99578.09
2023-01-15T03:18:45.268Z,99580.94
2023-01-15T03:21:18.635Z,99582.81
2023-01-15T03:23:52.177Z,99591.13
2023-01-15T03:26:20.457Z,99596.75
2023-01-15T03:28:54.493Z,99591.13
2023-01-15T03:31:24.039Z,99580.53
2023-01-15T03:33:52.227Z,99577.81
2023-01-15T03:36:22.411Z,99567.78
2023-01-15T03:38:52.605Z,99564.91
2023-01-15T03:42:04.219Z,99563.19
2023-01-15T03:44:40.982Z,99554.00
2023-01-15T03:47:25.165Z,99545.84
2023-01-15T03:50:04.801Z,99573.22
2023-01-15T03:52:47.580Z,99563.19
2023-01-15T03:55:20.410Z,99572.38
2023-01-15T03:58:01.104Z,99566.06
2023-01-15T04:00:37.617Z,99573.38
2023-01-15T04:03:08.451Z,99579.84
2023-01-15T04:05:39.521Z,99583.28
2023-01-15T04:08:09.889Z,99572.66
2023-01-15T04:10:37.947Z,99570.06
2023-01-15T04:13:10.423Z,99572.13
2023-01-15T04:15:42.478Z,99569.06
2023-01-15T04:18:10.410Z,99567.53
2023-01-15T04:20:38.165Z,99566.66
2023-01-15T04:23:06.013Z,99572.13
2023-01-15T04:25:34.117Z,99576.72
2023-01-15T04:28:05.743Z,99582.16
2023-01-15T04:30:36.238Z,99594.91
2023-01-15T04:33:06.763Z,99598.50
2023-01-15T04:35:36.255Z,99600.50
2023-01-15T04:38:05.381Z,99577.84
2023-01-15T04:40:54.030Z,99594.06
2023-01-15T04:43:42.242Z,99590.75
2023-01-15T04:46:13.647Z,99570.81
2023-01-15T04:48:44.469Z,99574.56
2023-01-15T04:51:20.003Z,99570.97
2023-01-15T04:53:47.940Z,99567.38
2023-01-15T04:56:19.716Z,99569.81
2023-01-15T04:58:47.743Z,99573.00
2023-01-15T05:01:21.929Z,99567.56
2023-01-15T05:03:52.413Z,99570.44
2023-01-15T05:06:20.375Z,99578.75
2023-01-15T05:08:48.339Z,99586.91
2023-01-15T05:11:16.285Z,99565.13
2023-01-15T05:13:44.343Z,99572.44
2023-01-15T05:16:15.344Z,99588.63
2023-01-15T05:18:44.074Z,99589.78
2023-01-15T05:21:20.600Z,99595.09
2023-01-15T05:23:49.034Z,99594.50
2023-01-15T05:26:16.972Z,99594.50
2023-01-15T05:28:59.196Z,99605.25
2023-01-15T05:31:46.324Z,99607.59
2023-01-15T05:34:15.897Z,99609.16
2023-01-15T05:36:49.917Z,99612.75
2023-01-15T05:39:18.317Z,99604.72
2023-01-15T05:41:53.275Z,99589.38
2023-01-15T05:44:26.329Z,99581.22
2023-01-15T05:46:56.429Z,99584.06
2023-01-15T05:49:32.111Z,99582.94
2023-01-15T05:52:02.548Z,99595.81
2023-01-15T05:54:32.626Z,99584.94
2023-01-15T05:57:01.722Z,99592.25
2023-01-15T05:59:30.895Z,99591.38
2023-01-15T06:01:59.090Z,99592.53
2023-01-15T06:04:26.924Z,99601.56
2023-01-15T06:07:02.217Z,99611.59
2023-01-15T06:09:36.364Z,99617.03
2023-01-15T06:12:05.166Z,99610.91
2023-01-15T06:14:33.601Z,99622.78
2023-01-15T06:17:01.557Z,99629.25
2023-01-15T06:19:29.646Z,99620.94
2023-01-15T06:21:58.398Z,99625.53
2023-01-15T06:24:26.231Z,99627.38
2023-01-15T06:26:55.485Z,99621.94
2023-01-15T06:29:23.441Z,99623.78
2023-01-15T06:31:51.548Z,99621.22
2023-01-15T06:34:19.710Z,99616.78
2023-01-15T06:36:47.642Z,99629.53
2023-01-15T06:39:17.924Z,99627.66
2023-01-15T06:42:03.438Z,99625.25
2023-01-15T06:44:50.137Z,99625.25
2023-01-15T06:47:23.253Z,99646.47
2023-01-15T06:49:54.646Z,99633.69
2023-01-15T06:52:22.738Z,99633.84
2023-01-15T06:54:50.583Z,99632.97
2023-01-15T06:57:18.908Z,99634.84
2023-01-15T06:59:48.450Z,99625.81
2023-01-15T07:02:17.820Z,99634.97
2023-01-15T07:04:45.693Z,99622.41
2023-01-15T07:07:13.550Z,99628.84
2023-01-15T07:09:41.373Z,99624.25
2023-01-15T07:12:09.133Z,99621.69
2023-01-15T07:14:36.961Z,99617.97
2023-01-15T07:17:06.192Z,99639.75
2023-01-15T07:19:34.102Z,99636.28
2023-01-15T07:22:01.888Z,99624.53
2023-01-15T07:24:29.754Z,99630.84
2023-01-15T07:26:57.567Z,99642.75
2023-01-15T07:29:45.276Z,99632.84
2023-01-15T07:32:23.914Z,99654.63
2023-01-15T07:34:54.840Z,99652.03
2023-01-15T07:37:23.021Z,99658.34
2023-01-15T07:39:50.959Z,99659.22
2023-01-15T07:42:36.717Z,99666.50
2023-01-15T07:45:22.618Z,99663.09
2023-01-15T07:48:09.646Z,99668.56
2023-01-15T07:50:37.948Z,99675.00
2023-01-15T07:53:05.826Z,99676.84
2023-01-15T07:55:34.510Z,99671.41
2023-01-15T07:58:03.809Z,99683.16
2023-01-15T08:00:31.753Z,99676.13
2023-01-15T08:03:01.402Z,99677.00
2023-01-15T08:05:29.402Z,99688.00
2023-01-15T08:07:57.342Z,99695.31
2023-01-15T08:10:26.455Z,99702.50
2023-01-15T08:13:11.636Z,99691.75
2023-01-15T08:15:42.837Z,99693.59
2023-01-15T08:18:13.145Z,99704.50
2023-01-15T08:20:41.243Z,99709.94
2023-01-15T08:23:10.710Z,99704.50
2023-01-15T08:25:38.590Z,99711.78
2023-01-15T08:28:06.525Z,99722.69
2023-01-15T08:30:35.313Z,99722.69
2023-01-15T08:33:05.231Z,99720.13
2023-01-15T08:35:37.098Z,99738.31
2023-01-15T08:38:08.236Z,99735.72
2023-01-15T08:44:30.055Z,99739.03
2023-01-15T08:47:00.478Z,99744.47
2023-01-15T08:49:28.435Z,99741.03
2023-01-15T08:51:57.619Z,99739.16
2023-01-15T08:54:25.895Z,99751.03
2023-01-15T08:56:53.924Z,99742.16
2023-01-15T08:59:21.749Z,99743.28
2023-01-15T09:01:49.747Z,99742.41
2023-01-15T09:04:19.209Z,99742.59
2023-01-15T09:06:48.155Z,99747.31
2023-01-15T09:09:18.850Z,99752.75
2023-01-15T09:11:46.850Z,99757.59
2023-01-15T09:14:58.402Z,99756.72
2023-01-15T09:17:07.452Z,99751.59
2023-01-15T09:19:39.728Z,99741.69
2023-01-15T09:22:23.699Z,99740.84
2023-01-15T09:24:56.750Z,99742.69
2023-01-15T09:27:24.728Z,99732.94
2023-01-15T09:29:53.014Z,99753.72
2023-01-15T09:32:20.866Z,99742.84
2023-01-15T09:34:48.967Z,99746.41
2023-01-15T09:37:17.345Z,99745.28
2023-01-15T09:39:45.337Z,99744.13
2023-01-15T09:42:27.865Z,99741.56
2023-01-15T09:45:15.439Z,99743.03
2023-01-15T09:47:56.338Z,99746.75
2023-01-15T09:50:33.058Z,99743.59
2023-01-15T09:53:15.558Z,99735.75
2023-01-15T09:55:47.226Z,99739.16
2023-01-15T09:58:21.324Z,99738.44
2023-01-15T10:00:54.931Z,99732.47
2023-01-15T10:03:42.523Z,99732.59
2023-01-15T10:06:21.089Z,99726.72
2023-01-15T10:08:50.957Z,99722.53
2023-01-15T10:11:46.647Z,99729.16
2023-01-15T10:14:26.746Z,99742.19
2023-01-15T10:17:08.350Z,99736.47
2023-01-15T10:19:44.838Z,99746.91
2023-01-15T10:22:20.977Z,99759.94
2023-01-15T10:24:57.192Z,99774.03
2023-01-15T10:27:37.292Z,99770.00
2023-01-15T10:30:32.766Z,99764.13
2023-01-15T10:33:25.648Z,99757.38
2023-01-15T10:36:03.388Z,99776.16
2023-01-15T10:38:40.698Z,99763.94
2023-01-15T10:41:31.394Z,99772.56
2023-01-15T10:44:05.407Z,99779.56
2023-01-15T10:46:40.725Z,99757.00
2023-01-15T10:49:19.381Z,99758.47
2023-01-15T10:51:52.734Z,99774.34
2023-01-15T10:54:32.930Z,99771.19
2023-01-15T10:57:12.952Z,99771.94
2023-01-15T10:59:50.573Z,99771.47
2023-01-15T11:02:28.568Z,99758.53
2023-01-15T11:04:56.851Z,99774.91
2023-01-15T11:08:08.614Z,99780.75
2023-01-15T11:10:39.399Z,99787.38
2023-01-15T11:13:40.647Z,99759.50
2023-01-15T11:16:36.126Z,99796.84
2023-01-15T11:19:24.448Z,99786.09
2023-01-15T11:21:54.955Z,99789.09
2023-01-15T11:24:22.756Z,99801.00
2023-01-15T11:26:54.763Z,99789.56
2023-01-15T11:29:34.549Z,99772.75
2023-01-15T11:32:02.410Z,99767.63
2023-01-15T11:34:32.838Z,99767.63
2023-01-15T11:37:05.485Z,99770.50
2023-01-15T11:39:33.573Z,99777.53
2023-01-15T11:42:20.810Z,99792.91
2023-01-15T11:45:10.834Z,99803.97
2023-01-15T11:47:56.546Z,99764.66
2023-01-15T11:50:43.380Z,99763.06
2023-01-15T11:53:19.050Z,99777.16
2023-01-15T11:56:04.272Z,99778.16
2023-01-15T11:58:40.432Z,99761.38
2023-01-15T12:01:09.335Z,99762.81
2023-01-15T12:03:37.977Z,99772.88
2023-01-15T12:06:12.007Z,99774.72
2023-01-15T12:08:49.090Z,99740.44
2023-01-15T12:11:55.153Z,99759.50
2023-01-15T12:14:40.399Z,99774.47
2023-01-15T12:17:21.529Z,99784.63
2023-01-15T12:20:00.975Z,99797.53
2023-01-15T12:22:41.097Z,99777.47
2023-01-15T12:25:21.456Z,99781.34
2023-01-15T12:28:02.220Z,99779.78
2023-01-15T12:30:37.779Z,99769.13
2023-01-15T12:33:18.192Z,99762.97
2023-01-15T12:35:56.259Z,99763.13
2023-01-15T12:38:38.949Z,99751.22
2023-01-15T12:41:13.970Z,99757.66
2023-01-15T12:44:04.957Z,99751.03
2023-01-15T12:46:40.558Z,99754.63
2023-01-15T12:49:17.363Z,99737.03
2023-01-15T12:51:51.098Z,99761.28
2023-01-15T12:54:25.488Z,99759.25
2023-01-15T12:57:00.085Z,99747.34
2023-01-15T12:59:35.798Z,99766.41
2023-01-15T13:02:15.642Z,99744.19
2023-01-15T13:04:49.638Z,99758.69
2023-01-15T13:07:30.702Z,99737.56
2023-01-15T13:10:08.347Z,99747.47
2023-01-15T13:12:36.660Z,99761.41
2023-01-15T13:15:06.139Z,99753.06
2023-01-15T13:17:44.669Z,99764.81
2023-01-15T13:20:35.339Z,99749.66
2023-01-15T13:23:10.239Z,99755.97
2023-01-15T13:26:03.886Z,99748.06
2023-01-15T13:28:42.845Z,99753.66
2023-01-15T13:31:32.814Z,99746.34
2023-01-15T13:34:04.858Z,99773.00
2023-01-15T13:36:40.739Z,99761.28
2023-01-15T13:39:16.899Z,99764.00
2023-01-15T13:42:07.414Z,99783.22
2023-01-15T13:44:42.841Z,99774.31
2023-01-15T13:47:14.345Z,99765.38
2023-01-15T13:49:49.785Z,99767.25
2023-01-15T13:52:26.261Z,99781.03
2023-01-15T13:54:59.540Z,99775.56
2023-01-15T13:57:35.792Z,99786.63
2023-01-15T14:00:33.833Z,99790.66
2023-01-15T14:03:03.914Z,99790.66
2023-01-15T14:05:33.747Z,99802.53
2023-01-15T14:08:03.070Z,99793.50
2023-01-15T14:10:38.626Z,99794.38
2023-01-15T14:13:28.094Z,99791.66
2023-01-15T14:16:09.714Z,99784.63
2023-01-15T14:19:18.245Z,99786.19
2023-01-15T14:21:55.029Z,99798.53
2023-01-15T14:24:50.868Z,99794.94
2023-01-15T14:27:45.883Z,99791.50
2023-01-15T14:30:32.425Z,99785.06
2023-01-15T14:33:12.606Z,99806.00
2023-01-15T14:35:46.720Z,99804.25
2023-01-15T14:38:18.956Z,99814.47
2023-01-15T14:40:59.543Z,99812.88
2023-01-15T14:43:29.133Z,99811.16
2023-01-15T14:49:29.940Z,99829.63
2023-01-15T14:51:59.753Z,99829.63
2023-01-15T14:54:28.628Z,99816.19
2023-01-15T14:57:04.423Z,99813.59
2023-01-15T14:59:44.023Z,99831.81
2023-01-15T15:02:22.561Z,99832.78
2023-01-15T15:04:56.125Z,99825.75
2023-01-15T15:07:29.632Z,99828.47
2023-01-15T15:10:03.142Z,99836.66
2023-01-15T15:12:36.444Z,99835.31
2023-01-15T15:15:13.486Z,99831.66
2023-01-15T15:17:50.715Z,99829.47
2023-01-15T15:20:29.342Z,99837.66
2023-01-15T15:23:04.892Z,99844.97
2023-01-15T15:25:38.174Z,99830.50
2023-01-15T15:28:11.318Z,99831.34
2023-01-15T15:30:44.904Z,99839.50
2023-01-15T15:33:19.258Z,99826.75
2023-01-15T15:35:50.427Z,99823.16
2023-01-15T15:38:20.341Z,99837.66
2023-01-15T15:40:53.114Z,99842.97
2023-01-15T15:43:43.815Z,99828.78
2023-01-15T15:46:42.144Z,99836.78
2023-01-15T15:49:11.351Z,99837.97
2023-01-15T15:51:41.333Z,99833.25
2023-01-15T15:54:16.540Z,99848.41
2023-01-15T15:56:48.534Z,99845.81
2023-01-15T15:59:29.422Z,99849.56
2023-01-15T16:02:17.701Z,99845.13
2023-01-15T16:04:51.015Z,99841.53
2023-01-15T16:07:25.310Z,99845.81
2023-01-15T16:09:55.776Z,99846.00
2023-01-15T16:12:24.656Z,99854.31
2023-01-15T16:14:53.654Z,99849.72
2023-01-15T16:17:28.370Z,99849.72
2023-01-15T16:19:58.582Z,99853.31
2023-01-15T16:22:26.524Z,99847.13
2023-01-15T16:24:56.976Z,99853.31
2023-01-15T16:27:28.477Z,99854.31
2023-01-15T16:29:56.399Z,99840.81
2023-01-15T16:32:28.870Z,99856.16
2023-01-15T16:35:07.360Z,99840.69
2023-01-15T16:37:35.956Z,99841.69
2023-01-15T16:40:06.229Z,99846.13
2023-01-15T16:42:37.219Z,99845.25
2023-01-15T16:45:19.007Z,99848.84
2023-01-15T16:48:02.856Z,99849.72
2023-01-15T16:50:33.825Z,99849.72
2023-01-15T16:53:03.142Z,99839.69
2023-01-15T16:55:42.999Z,99844.13
2023-01-15T16:58:22.766Z,99846.84
2023-01-15T17:00:53.444Z,99846.13
2023-01-15T17:03:24.608Z,99855.16
2023-01-15T17:05:57.290Z,99850.56
2023-01-15T17:08:33.006Z,99856.16
2023-01-15T17:11:03.374Z,99852.56
2023-01-15T17:13:36.553Z,99860.59
2023-01-15T17:16:07.999Z,99862.59
2023-01-15T17:18:36.336Z,99864.47
2023-01-15T17:21:07.098Z,99870.63
2023-01-15T17:23:37.497Z,99869.03
2023-01-15T17:26:06.768Z,99858.41
2023-01-15T17:28:35.308Z,99851.28
2023-01-15T17:31:04.159Z,99857.59
2023-01-15T17:33:31.970Z,99849.56
2023-01-15T17:36:01.244Z,99857.84
2023-01-15T17:38:30.458Z,99868.63
2023-01-15T17:41:00.697Z,99856.88
2023-01-15T17:43:28.469Z,99859.84
2023-01-15T17:45:56.306Z,99862.72
2023-01-15T17:48:24.089Z,99862.56
2023-01-15T17:50:51.941Z,99849.97
2023-01-15T17:53:19.716Z,99853.69
2023-01-15T17:56:06.174Z,99857.25
2023-01-15T17:58:51.445Z,99853.13
2023-01-15T18:01:47.518Z,99844.09
2023-01-15T18:04:37.154Z,99849.66
2023-01-15T18:07:05.954Z,99847.22
2023-01-15T18:09:35.961Z,99864.28
2023-01-15T18:12:06.172Z,99862.53
2023-01-15T18:14:33.953Z,99855.38
2023-01-15T18:17:02.553Z,99853.50
2023-01-15T18:19:30.727Z,99863.72
2023-01-15T18:21:58.640Z,99846.50
2023-01-15T18:24:26.476Z,99848.38
2023-01-15T18:26:55.464Z,99850.38
2023-01-15T18:29:24.803Z,99849.38
2023-01-15T18:31:52.589Z,99843.19
2023-01-15T18:34:20.392Z,99842.31
2023-01-15T18:36:48.382Z,99837.00
2023-01-15T18:39:16.298Z,99849.63
2023-01-15T18:42:01.657Z,99849.75
2023-01-15T18:44:48.381Z,99853.34
2023-01-15T18:47:17.613Z,99848.91
2023-01-15T18:49:46.893Z,99840.72
2023-01-15T18:52:34.734Z,99840.72
2023-01-15T18:55:02.749Z,99841.91
2023-01-15T18:57:33.950Z,99841.59
2023-01-15T19:00:05.830Z,99849.75
2023-01-15T19:02:33.744Z,99837.00
2023-01-15T19:05:03.333Z,99839.75
2023-01-15T19:07:31.661Z,99828.84
2023-01-15T19:09:59.696Z,99823.41
2023-01-15T19:12:27.701Z,99819.69
2023-01-15T19:15:12.954Z,99823.28
2023-01-15T19:18:10.941Z,99827.72
2023-01-15T19:20:42.363Z,99823.28
2023-01-15T19:23:21.795Z,99814.84
2023-01-15T19:25:50.184Z,99815.09
2023-01-15T19:28:20.914Z,99804.94
2023-01-15T19:31:12.508Z,99817.56
2023-01-15T19:33:41.731Z,99811.25
2023-01-15T19:36:10.119Z,99812.13
2023-01-15T19:38:39.194Z,99806.66
2023-01-15T19:41:28.344Z,99807.41
2023-01-15T19:44:14.003Z,99788.59
2023-01-15T19:46:59.604Z,99790.47
2023-01-15T19:49:51.630Z,99786.63
2023-01-15T19:52:38.681Z,99779.72
2023-01-15T19:55:10.753Z,99780.44
2023-01-15T19:57:38.908Z,99772.53
2023-01-15T20:00:33.139Z,99764.38
2023-01-15T20:03:02.234Z,99762.50
2023-01-15T20:05:33.075Z,99765.97
2023-01-15T20:08:01.130Z,99762.38
2023-01-15T20:10:31.762Z,99760.53
2023-01-15T20:13:17.409Z,99746.19
2023-01-15T20:15:46.580Z,99743.47
2023-01-15T20:18:14.759Z,99747.03
2023-01-15T20:20:44.435Z,99739.75
2023-01-15T20:23:12.287Z,99732.56
2023-01-15T20:25:41.457Z,99730.72
2023-01-15T20:28:09.267Z,99730.84
2023-01-15T20:30:37.044Z,99729.00
2023-01-15T20:33:04.997Z,99730.72
2023-01-15T20:35:33.489Z,99712.66
2023-01-15T20:38:02.704Z,99712.66
2023-01-15T20:40:30.672Z,99711.97
2023-01-15T20:43:15.924Z,99704.63
2023-01-15T20:45:43.810Z,99703.06
2023-01-15T20:48:29.285Z,99702.22
2023-01-15T20:51:05.980Z,99701.34
2023-01-15T20:53:35.663Z,99694.91
2023-01-15T20:56:05.051Z,99685.88
2023-01-15T20:58:33.004Z,99689.47
2023-01-15T21:01:07.114Z,99676.72
2023-01-15T21:03:39.600Z,99675.00
2023-01-15T21:06:08.575Z,99671.41
2023-01-15T21:08:39.715Z,99663.09
2023-01-15T21:11:07.898Z,99664.22
2023-01-15T21:13:36.716Z,99658.78
2023-01-15T21:16:07.366Z,99653.22
2023-01-15T21:18:37.266Z,99658.78
2023-01-15T21:21:09.966Z,99654.22
2023-01-15T21:23:40.255Z,99657.06
2023-01-15T21:26:08.324Z,99646.19
2023-01-15T21:28:36.418Z,99641.47
2023-01-15T21:31:07.790Z,99636.03
2023-01-15T21:33:35.975Z,99627.13
2023-01-15T21:36:07.427Z,99621.69
2023-01-15T21:38:35.360Z,99616.56
2023-01-15T21:41:09.966Z,99619.09
2023-01-15T21:43:55.229Z,99620.41
2023-01-15T21:46:27.106Z,99604.34
2023-01-15T21:48:54.984Z,99606.34
2023-01-15T21:51:22.966Z,99599.22
2023-01-15T21:53:50.814Z,99592.19
2023-01-15T21:56:19.985Z,99594.91
2023-01-15T21:58:47.851Z,99597.06
2023-01-15T22:01:18.126Z,99586.16
2023-01-15T22:03:46.200Z,99574.59
2023-01-15T22:06:15.250Z,99570.16
2023-01-15T22:08:43.333Z,99563.97
2023-01-15T22:11:11.831Z,99570.28
2023-01-15T22:13:41.668Z,99561.25
2023-01-15T22:16:09.883Z,99566.84
2023-01-15T22:18:37.856Z,99558.81
2023-01-15T22:21:08.529Z,99556.97
2023-01-15T22:23:36.424Z,99552.69
2023-01-15T22:26:04.308Z,99552.69
2023-01-15T22:28:33.744Z,99541.94
2023-01-15T22:31:07.936Z,99537.38
2023-01-15T22:33:35.969Z,99535.78
2023-01-15T22:36:04.424Z,99530.34
2023-01-15T22:38:32.367Z,99532.19
2023-01-15T22:41:00.894Z,99534.91
2023-01-15T22:43:30.461Z,99532.19
2023-01-15T22:46:10.556Z,99526.91
2023-01-15T22:48:48.289Z,99516.00
2023-01-15T22:51:16.661Z,99519.72
2023-01-15T22:53:44.559Z,99513.28
2023-01-15T22:56:12.973Z,99502.41
2023-01-15T22:58:42.655Z,99500.56
2023-01-15T23:01:10.962Z,99499.69
2023-01-15T23:03:39.637Z,99486.09
2023-01-15T23:06:12.092Z,99487.81
2023-01-15T23:08:40.463Z,99481.66
2023-01-15T23:11:11.335Z,99473.22
2023-01-15T23:13:39.766Z,99468.78
2023-01-15T23:16:07.738Z,99474.22
2023-01-15T23:18:36.094Z,99466.03
2023-01-15T23:21:05.404Z,99461.47
2023-01-15T23:23:34.883Z,99462.31
2023-01-15T23:26:03.133Z,99451.59
2023-01-15T23:28:31.227Z,99442.56
2023-01-15T23:30:59.141Z,99448.00
2023-01-15T23:33:27.203Z,99449.72
2023-01-15T23:35:55.414Z,99437.13
2023-01-15T23:38:23.354Z,99440.84
2023-01-15T23:40:52.566Z,99425.38
2023-01-15T23:43:38.357Z,99439.13
2023-01-15T23:46:37.080Z,99436.41
2023-01-15T23:49:07.288Z,99416.69
2023-01-15T23:51:35.684Z,99428.41
2023-01-15T23:54:04.290Z,99421.13
2023-01-15T23:56:34.282Z,99417.38
2023-01-15T23:59:01.960Z,99403.06
